Time;durP1;ratioP1;P1;durP2;ratioP2;P2;SDS_P1;SDS_P2;PMS_P1;PMS_P2;Temp;Humidity;BMP_temperature;BMP_pressure;BME280_temperature;BME280_humidity;BME280_pressure;Samples;Min_cycle;Max_cycle;Signal;HPM_P1;HPM_P2
2024/04/12 00:02:12;;;;;;;13.93;8.13;;;10.00;98.60;;;;;;5482195;26;20002;-79
2024/04/12 00:04:41;;;;;;;10.70;8.57;;;10.00;98.80;;;;;;5482098;26;20485;-79
2024/04/12 00:07:13;;;;;;;13.70;8.43;;;10.00;98.90;;;;;;5476955;26;20008;-79
2024/04/12 00:09:52;;;;;;;18.48;8.77;;;10.00;98.90;;;;;;5467807;26;20006;-80
2024/04/12 00:12:25;;;;;;;13.13;8.10;;;9.90;99.50;;;;;;5471307;26;20002;-80
2024/04/12 00:15:01;;;;;;;12.50;9.55;;;9.90;99.70;;;;;;5466972;26;20011;-79
2024/04/12 00:17:31;;;;;;;15.57;8.95;;;9.90;99.70;;;;;;5472348;26;20415;-79
2024/04/12 00:20:00;;;;;;;17.08;8.82;;;9.80;99.90;;;;;;5437138;26;20321;-80
2024/04/12 00:22:29;;;;;;;11.80;8.65;;;9.80;99.90;;;;;;5462604;26;19999;-80
2024/04/12 00:24:59;;;;;;;13.38;8.73;;;9.80;99.90;;;;;;5465165;26;20074;-78
2024/04/12 00:27:33;;;;;;;13.27;8.75;;;9.80;99.90;;;;;;5468975;26;20009;-79
2024/04/12 00:30:03;;;;;;;15.60;8.95;;;9.80;99.90;;;;;;5480351;26;20002;-79
2024/04/12 00:32:34;;;;;;;12.23;8.50;;;9.70;99.90;;;;;;5481515;26;19999;-78
2024/04/12 00:35:03;;;;;;;11.50;7.97;;;9.70;99.90;;;;;;5481665;26;19999;-79
2024/04/12 00:37:33;;;;;;;13.82;8.57;;;9.70;99.90;;;;;;5462485;26;19994;-79
2024/04/12 00:40:00;;;;;;;14.25;8.57;;;9.70;99.90;;;;;;5482442;26;20009;-79
2024/04/12 00:42:33;;;;;;;12.75;8.68;;;9.70;99.90;;;;;;5480607;26;20284;-79
2024/04/12 00:45:02;;;;;;;11.43;7.85;;;9.70;99.90;;;;;;5465303;26;20356;-80
2024/04/12 00:47:32;;;;;;;10.73;7.78;;;9.60;99.90;;;;;;5461401;26;19999;-79
2024/04/12 00:50:06;;;;;;;14.80;8.90;;;9.60;99.90;;;;;;5467800;26;20015;-80
2024/04/12 00:52:35;;;;;;;15.55;9.13;;;9.60;99.90;;;;;;5470409;26;20055;-79
2024/04/12 00:55:07;;;;;;;16.23;9.18;;;9.60;99.90;;;;;;5463970;26;20073;-81
2024/04/12 00:57:37;;;;;;;11.75;9.10;;;9.50;99.90;;;;;;5466215;26;20021;-79
2024/04/12 01:00:12;;;;;;;13.98;9.15;;;9.50;99.90;;;;;;5491181;26;20011;-79
2024/04/12 01:02:43;;;;;;;13.07;9.80;;;9.50;99.90;;;;;;5473886;26;20014;-79
2024/04/12 01:05:17;;;;;;;16.92;8.63;;;9.40;99.90;;;;;;5476284;26;20005;-79
2024/04/12 01:07:55;;;;;;;14.35;9.05;;;9.40;99.90;;;;;;5484445;26;20002;-79
2024/04/12 01:10:24;;;;;;;14.02;8.93;;;9.40;99.90;;;;;;5489208;26;20319;-79
2024/04/12 01:13:01;;;;;;;15.85;9.07;;;9.40;99.90;;;;;;5487432;26;20005;-80
2024/04/12 01:15:36;;;;;;;11.05;9.05;;;9.40;99.90;;;;;;5484924;26;20010;-79
2024/04/12 01:18:10;;;;;;;13.07;9.00;;;9.40;99.90;;;;;;5473985;26;19998;-80
2024/04/12 01:20:39;;;;;;;12.20;9.00;;;9.30;99.90;;;;;;5474587;26;20002;-79
2024/04/12 01:23:07;;;;;;;14.07;9.18;;;9.30;99.90;;;;;;5465305;26;19998;-80
2024/04/12 01:25:34;;;;;;;12.95;8.80;;;9.30;99.90;;;;;;5467140;26;20055;-80
2024/04/12 01:28:03;;;;;;;15.32;8.80;;;9.30;99.90;;;;;;5467734;26;19999;-79
2024/04/12 01:30:31;;;;;;;13.73;9.05;;;9.30;99.90;;;;;;5470096;26;20042;-79
2024/04/12 01:32:58;;;;;;;16.95;8.90;;;9.30;99.90;;;;;;5467362;26;20000;-79
2024/04/12 01:35:26;;;;;;;14.57;8.85;;;9.20;99.90;;;;;;5466295;26;20447;-78
2024/04/12 01:37:57;;;;;;;11.80;9.00;;;9.20;99.90;;;;;;5462668;26;19999;-80
2024/04/12 01:40:25;;;;;;;13.18;8.90;;;9.20;99.90;;;;;;5441741;26;19998;-79
2024/04/12 01:42:53;;;;;;;13.95;9.63;;;9.20;99.90;;;;;;5481893;26;19993;-79
2024/04/12 01:45:26;;;;;;;14.18;9.40;;;9.20;99.90;;;;;;5462136;26;20428;-80
2024/04/12 01:47:56;;;;;;;13.23;9.02;;;9.20;99.90;;;;;;5454058;26;20002;-80
2024/04/12 01:50:23;;;;;;;14.95;9.95;;;9.20;99.90;;;;;;5484132;26;19995;-78
2024/04/12 01:52:54;;;;;;;11.45;8.48;;;9.10;99.90;;;;;;5466967;26;19995;-79
2024/04/12 01:55:25;;;;;;;15.98;9.35;;;9.10;99.90;;;;;;5451380;26;20049;-80
2024/04/12 01:57:55;;;;;;;15.82;8.70;;;9.10;99.90;;;;;;5472856;26;19998;-80
2024/04/12 02:00:24;;;;;;;11.15;8.82;;;9.10;99.90;;;;;;5462869;26;19998;-79
2024/04/12 02:02:53;;;;;;;15.73;9.05;;;9.10;99.90;;;;;;5471528;26;20045;-79
2024/04/12 02:05:34;;;;;;;16.77;8.35;;;9.10;99.90;;;;;;5465047;26;19995;-79
2024/04/12 02:08:07;;;;;;;12.68;7.68;;;9.10;99.90;;;;;;5467401;26;20357;-79
2024/04/12 02:10:41;;;;;;;15.10;9.45;;;9.00;99.90;;;;;;5469233;26;20006;-79
2024/04/12 02:13:18;;;;;;;;;;;9.00;99.90;;;;;;5463344;26;19998;-78
2024/04/12 02:15:47;;;;;;;12.80;9.02;;;9.00;99.90;;;;;;5485228;26;19932;-79
2024/04/12 02:18:14;;;;;;;13.40;9.68;;;8.90;99.90;;;;;;5478709;26;20009;-80
2024/04/12 02:20:45;;;;;;;11.98;8.93;;;8.90;99.90;;;;;;5479825;26;19994;-80
2024/04/12 02:23:19;;;;;;;15.23;9.27;;;8.90;99.90;;;;;;5486374;26;20002;-80
2024/04/12 02:25:48;;;;;;;;;;;8.90;99.90;;;;;;5453442;26;19999;-78
2024/04/12 02:28:19;;;;;;;14.00;8.98;;;8.90;99.90;;;;;;5453820;26;20337;-80
2024/04/12 02:30:54;;;;;;;13.77;9.18;;;8.90;99.90;;;;;;5477584;26;20075;-80
2024/04/12 02:33:25;;;;;;;14.20;9.75;;;8.80;99.90;;;;;;5478928;26;21053;-80
2024/04/12 02:36:11;;;;;;;12.93;9.00;;;8.80;99.90;;;;;;5478820;26;20064;-80
2024/04/12 02:38:41;;;;;;;15.25;9.63;;;8.80;99.90;;;;;;5476620;26;20030;-79
2024/04/12 02:41:13;;;;;;;12.88;9.13;;;8.80;99.90;;;;;;5469085;26;19998;-79
2024/04/12 02:43:42;;;;;;;14.65;9.50;;;8.80;99.90;;;;;;5466589;26;20064;-79
2024/04/12 02:46:14;;;;;;;11.45;9.15;;;8.80;99.90;;;;;;5467418;26;20053;-80
2024/04/12 02:48:44;;;;;;;14.73;9.15;;;8.80;99.90;;;;;;5466038;26;19999;-79
2024/04/12 02:51:17;;;;;;;10.90;9.10;;;8.80;99.90;;;;;;5472136;26;20356;-81
2024/04/12 02:53:47;;;;;;;16.17;9.18;;;8.80;99.90;;;;;;5472229;26;20006;-79
2024/04/12 02:56:17;;;;;;;11.30;8.15;;;8.70;99.90;;;;;;5454105;26;20035;-79
2024/04/12 02:58:51;;;;;;;15.82;8.70;;;8.70;99.90;;;;;;5481151;26;20014;-78
2024/04/12 03:01:20;;;;;;;12.80;8.98;;;8.70;99.90;;;;;;5513856;26;19998;-79
2024/04/12 03:03:50;;;;;;;13.00;9.02;;;8.70;99.90;;;;;;5452579;26;20006;-80
2024/04/12 03:06:22;;;;;;;12.32;9.10;;;8.60;99.90;;;;;;5455134;26;20003;-78
2024/04/12 03:08:51;;;;;;;14.80;8.70;;;8.60;99.90;;;;;;5459808;26;20063;-79
2024/04/12 03:11:26;;;;;;;12.23;8.10;;;8.60;99.90;;;;;;5478419;26;19995;-79
2024/04/12 03:13:58;;;;;;;13.52;8.65;;;8.60;99.90;;;;;;5478735;26;20357;-79
2024/04/12 03:16:26;;;;;;;13.05;9.55;;;8.60;99.90;;;;;;5474538;26;20330;-79
2024/04/12 03:18:53;;;;;;;10.43;8.98;;;8.50;99.90;;;;;;5475578;26;20083;-79
2024/04/12 03:21:26;;;;;;;13.02;8.50;;;8.50;99.90;;;;;;5502372;26;20480;-79
2024/04/12 03:23:55;;;;;;;11.05;8.93;;;8.50;99.90;;;;;;5473591;26;20032;-79
2024/04/12 03:26:22;;;;;;;13.88;8.38;;;8.50;99.90;;;;;;5465658;26;20090;-79
2024/04/12 03:28:54;;;;;;;14.10;9.15;;;8.40;99.90;;;;;;5475948;26;20014;-79
2024/04/12 03:31:33;;;;;;;9.00;7.47;;;8.40;99.90;;;;;;5481242;26;20493;-79
2024/04/12 03:34:00;;;;;;;13.60;8.80;;;8.40;99.90;;;;;;5465014;26;20006;-79
2024/04/12 03:41:58;;;;;;;11.88;9.48;;;8.30;99.90;;;;;;5490733;26;20002;-79
2024/04/12 03:44:30;;;;;;;11.75;8.93;;;8.30;99.90;;;;;;5486888;26;20010;-80
2024/04/12 03:47:02;;;;;;;16.02;9.52;;;8.30;99.90;;;;;;5452435;26;20010;-79
2024/04/12 03:49:32;;;;;;;18.20;9.10;;;8.20;99.90;;;;;;5469486;26;20022;-79
2024/04/12 03:51:59;;;;;;;12.85;10.68;;;8.20;99.90;;;;;;5462641;26;20015;-79
2024/04/12 03:54:27;;;;;;;14.93;11.43;;;8.20;99.90;;;;;;5465815;26;20019;-79
2024/04/12 03:57:05;;;;;;;18.45;10.93;;;8.10;99.90;;;;;;5469782;26;20005;-79
2024/04/12 03:59:38;;;;;;;14.20;9.52;;;;;;;;;;5467531;26;19995;-80
2024/04/12 04:02:08;;;;;;;14.32;10.30;;;8.10;99.90;;;;;;5464135;26;20049;-80
2024/04/12 04:04:38;;;;;;;15.45;9.68;;;8.10;99.90;;;;;;5467218;26;20003;-80
2024/04/12 04:07:06;;;;;;;15.73;9.40;;;8.10;99.90;;;;;;5470680;26;20006;-79
2024/04/12 04:09:33;;;;;;;16.45;10.18;;;8.10;99.90;;;;;;5464516;26;20033;-79
2024/04/12 04:12:01;;;;;;;13.40;11.23;;;8.10;99.90;;;;;;5478089;26;20488;-79
2024/04/12 04:14:30;;;;;;;14.45;10.73;;;8.10;99.90;;;;;;5484017;26;20070;-79
2024/04/12 04:17:01;;;;;;;18.25;10.85;;;8.10;99.90;;;;;;5481206;26;20034;-79
2024/04/12 04:19:41;;;;;;;16.15;10.38;;;8.10;99.90;;;;;;5474121;26;20010;-79
2024/04/12 04:22:21;;;;;;;14.75;10.43;;;8.00;99.90;;;;;;5488420;26;20006;-79
2024/04/12 04:24:52;;;;;;;15.88;10.95;;;8.00;99.90;;;;;;5486289;26;20431;-78
2024/04/12 04:27:21;;;;;;;13.85;10.20;;;8.00;99.90;;;;;;5470794;26;20615;-78
2024/04/12 04:29:58;;;;;;;17.60;11.25;;;8.00;99.90;;;;;;5461972;26;20068;-78
2024/04/12 04:32:26;;;;;;;16.85;10.40;;;8.00;99.90;;;;;;5465454;26;20072;-78
2024/04/12 04:34:55;;;;;;;15.45;9.68;;;8.00;99.90;;;;;;5466524;26;20018;-78
2024/04/12 04:37:23;;;;;;;12.93;10.73;;;8.00;99.90;;;;;;5465541;26;20002;-78
2024/04/12 04:40:09;;;;;;;13.52;9.77;;;8.00;99.90;;;;;;5464492;26;20002;-79
2024/04/12 04:42:37;;;;;;;12.27;9.55;;;8.00;99.90;;;;;;5467489;26;20439;-78
2024/04/12 04:45:08;;;;;;;15.40;10.93;;;8.00;99.90;;;;;;5475190;26;19994;-78
2024/04/12 04:47:39;;;;;;;16.92;9.85;;;8.00;99.90;;;;;;5459188;26;20013;-78
2024/04/12 04:50:08;;;;;;;18.02;10.45;;;8.00;99.90;;;;;;5467113;26;20026;-78
2024/04/12 04:52:36;;;;;;;16.08;10.73;;;8.00;99.90;;;;;;5457848;26;19998;-78
2024/04/12 04:55:07;;;;;;;13.68;9.43;;;8.00;99.90;;;;;;5456046;26;20067;-78
2024/04/12 04:57:43;;;;;;;12.25;9.32;;;8.10;99.90;;;;;;5481798;26;20006;-78
2024/04/12 05:00:21;;;;;;;14.05;9.38;;;8.10;99.90;;;;;;5479730;26;20006;-78
2024/04/12 05:02:55;;;;;;;13.90;9.50;;;8.10;99.90;;;;;;5482558;26;19998;-78
2024/04/12 05:05:23;;;;;;;14.43;9.87;;;8.20;99.90;;;;;;5453736;26;20007;-78
2024/04/12 05:07:55;;;;;;;18.38;9.93;;;8.20;99.90;;;;;;5476146;26;20328;-79
2024/04/12 05:10:22;;;;;;;12.38;9.45;;;8.30;99.90;;;;;;5461592;26;20008;-78
2024/04/12 05:12:53;;;;;;;19.63;10.23;;;8.30;99.90;;;;;;5458110;26;20010;-78
2024/04/12 05:18:12;;;;;;;11.52;9.68;;;8.40;99.90;;;;;;5468413;26;20006;-79
2024/04/12 05:20:41;;;;;;;;;;;8.50;99.90;;;;;;5473294;26;20010;-78
2024/04/12 05:23:15;;;;;;;11.98;9.40;;;8.50;99.90;;;;;;5464064;26;20236;-79
2024/04/12 05:25:43;;;;;;;14.32;9.38;;;8.60;99.90;;;;;;5456328;26;20331;-78
2024/04/12 05:28:12;;;;;;;15.85;10.07;;;8.60;99.90;;;;;;5477149;26;19999;-78
2024/04/12 05:30:42;;;;;;;12.07;9.30;;;8.70;99.90;;;;;;5451607;26;20280;-78
2024/04/12 05:33:11;;;;;;;18.30;9.55;;;8.80;99.90;;;;;;5458358;26;20335;-78
2024/04/12 05:35:40;;;;;;;10.90;9.20;;;8.80;99.90;;;;;;5449304;26;20015;-78
2024/04/12 05:38:07;;;;;;;17.23;9.80;;;8.90;99.90;;;;;;5443148;26;20020;-78
2024/04/12 05:40:41;;;;;;;17.83;9.90;;;9.00;99.90;;;;;;5460377;26;20066;-78
2024/04/12 05:43:13;;;;;;;17.75;10.07;;;9.00;99.90;;;;;;5467665;26;20002;-78
2024/04/12 05:45:49;;;;;;;16.80;10.07;;;9.10;99.90;;;;;;5470199;26;20071;-78
2024/04/12 05:48:17;;;;;;;15.65;9.32;;;9.20;99.90;;;;;;5459324;26;20015;-78
2024/04/12 05:50:49;;;;;;;13.07;9.18;;;9.30;99.90;;;;;;5458117;26;20326;-79
2024/04/12 05:53:30;;;;;;;14.05;8.45;;;9.40;99.90;;;;;;5465282;26;20017;-79
2024/04/12 05:58:50;;;;;;;12.73;8.95;;;9.60;99.90;;;;;;5457542;26;20015;-78
2024/04/12 06:01:19;;;;;;;14.57;8.63;;;9.70;99.90;;;;;;5461916;26;20072;-78
2024/04/12 06:03:49;;;;;;;12.68;7.70;;;9.80;99.90;;;;;;5452792;26;20026;-78
2024/04/12 06:06:23;;;;;;;;;;;9.90;99.90;;;;;;5451544;26;20485;-78
2024/04/12 06:08:52;;;;;;;14.90;8.18;;;10.00;99.90;;;;;;5467231;26;20246;-78
2024/04/12 06:11:21;;;;;;;11.10;7.43;;;10.10;99.90;;;;;;5484921;26;19994;-78
2024/04/12 06:13:53;;;;;;;13.40;7.32;;;10.10;99.90;;;;;;5485160;26;19998;-78
2024/04/12 06:16:21;;;;;;;7.53;6.68;;;10.20;99.90;;;;;;5478402;26;20415;-78
2024/04/12 06:18:50;;;;;;;9.18;7.50;;;10.30;99.70;;;;;;5464641;26;20019;-78
2024/04/12 06:21:18;;;;;;;10.65;7.05;;;10.40;99.50;;;;;;5478657;26;20009;-78
2024/04/12 06:23:49;;;;;;;12.60;7.32;;;10.50;99.20;;;;;;5472879;26;20002;-78
2024/04/12 06:26:16;;;;;;;8.35;6.93;;;10.60;99.20;;;;;;5466003;26;20438;-78
2024/04/12 06:28:44;;;;;;;10.63;7.25;;;10.70;99.10;;;;;;5496668;26;20011;-79
2024/04/12 06:31:19;;;;;;;19.17;7.65;;;10.80;99.10;;;;;;5463587;26;20013;-79
2024/04/12 06:33:49;;;;;;;11.07;7.22;;;10.90;98.90;;;;;;5465772;26;20023;-78
2024/04/12 06:36:16;;;;;;;16.15;7.40;;;11.00;98.40;;;;;;5471594;26;20431;-78
2024/04/12 06:38:44;;;;;;;12.82;7.70;;;11.10;98.10;;;;;;5468173;26;20034;-78
2024/04/12 06:41:14;;;;;;;10.20;7.03;;;11.30;97.80;;;;;;5471123;26;19999;-78
2024/04/12 06:43:45;;;;;;;9.95;7.68;;;11.40;97.50;;;;;;5466436;26;20021;-78
2024/04/12 06:46:14;;;;;;;13.48;9.05;;;11.50;97.40;;;;;;5456218;26;20011;-79
2024/04/12 06:48:44;;;;;;;13.02;7.85;;;11.60;97.40;;;;;;5417967;26;20010;-78
2024/04/12 06:51:11;;;;;;;12.45;7.43;;;11.70;97.00;;;;;;5464399;26;20003;-78
2024/04/12 06:53:45;;;;;;;9.70;7.28;;;11.80;96.30;;;;;;5455204;26;20014;-78
2024/04/12 06:56:17;;;;;;;16.15;7.28;;;12.00;96.20;;;;;;5471348;26;20006;-78
2024/04/12 06:58:48;;;;;;;10.10;7.57;;;12.10;95.90;;;;;;5456878;26;20011;-78
2024/04/12 07:01:21;;;;;;;8.52;7.18;;;12.20;95.60;;;;;;5476279;26;20006;-79
2024/04/12 07:03:52;;;;;;;8.15;6.55;;;12.30;95.40;;;;;;5470516;26;20021;-78
2024/04/12 07:06:20;;;;;;;10.75;7.35;;;12.40;94.90;;;;;;5471983;26;20370;-78
2024/04/12 07:08:52;;;;;;;15.10;7.28;;;12.60;94.90;;;;;;5466799;26;20025;-79
2024/04/12 07:11:21;;;;;;;10.73;6.82;;;12.70;94.80;;;;;;5470207;26;20071;-78
2024/04/12 07:13:52;;;;;;;10.27;7.25;;;12.80;95.10;;;;;;5459612;26;20009;-79
2024/04/12 07:16:23;;;;;;;9.32;7.05;;;13.00;94.40;;;;;;5462808;26;20002;-79
2024/04/12 07:18:53;;;;;;;11.18;6.72;;;13.10;93.90;;;;;;5455660;26;20351;-78
2024/04/12 07:21:22;;;;;;;10.45;6.53;;;13.20;92.90;;;;;;5458532;26;20007;-79
2024/04/12 07:23:50;;;;;;;11.65;6.57;;;13.40;92.40;;;;;;5452393;26;20011;-79
2024/04/12 07:26:24;;;;;;;9.55;6.88;;;13.50;91.40;;;;;;5459617;26;20029;-79
2024/04/12 07:28:58;;;;;;;8.20;6.90;;;13.60;87.90;;;;;;5478887;26;20005;-79
2024/04/12 07:31:26;;;;;;;10.57;6.13;;;13.60;87.10;;;;;;5453625;26;20064;-79
2024/04/12 07:33:59;;;;;;;10.38;6.47;;;13.60;88.20;;;;;;5482410;26;20299;-79
2024/04/12 07:36:33;;;;;;;12.50;6.85;;;13.70;86.40;;;;;;5477599;26;20012;-78
2024/04/12 07:39:01;;;;;;;10.02;6.38;;;13.80;86.10;;;;;;5466536;26;20309;-79
2024/04/12 07:41:32;;;;;;;11.52;6.53;;;13.90;85.70;;;;;;5444542;26;20010;-79
2024/04/12 07:44:04;;;;;;;10.65;6.03;;;14.00;84.90;;;;;;5467883;26;20374;-79
2024/04/12 07:46:34;;;;;;;9.23;6.15;;;14.20;86.20;;;;;;5467234;26;20008;-79
2024/04/12 07:49:02;;;;;;;13.00;6.78;;;14.30;84.70;;;;;;5472107;26;20071;-79
2024/04/12 07:51:39;;;;;;;10.27;6.20;;;14.40;82.00;;;;;;5469043;26;20365;-79
2024/04/12 07:54:11;;;;;;;11.30;6.43;;;14.50;83.20;;;;;;5472207;26;20014;-79
2024/04/12 07:56:44;;;;;;;11.63;6.32;;;14.60;81.50;;;;;;5458132;26;20047;-79
2024/04/12 07:59:17;;;;;;;10.73;5.85;;;14.80;81.40;;;;;;5462446;26;20010;-79
2024/04/12 08:01:47;;;;;;;8.18;6.20;;;14.90;80.00;;;;;;5454947;26;20412;-79
2024/04/12 08:04:25;;;;;;;9.45;6.20;;;15.10;76.80;;;;;;5450990;26;20002;-79
2024/04/12 08:06:57;;;;;;;10.23;7.00;;;15.20;76.40;;;;;;5470517;26;20002;-79
2024/04/12 08:09:44;;;;;;;9.98;6.38;;;15.40;74.90;;;;;;5448879;26;20002;-79
2024/04/12 08:12:15;;;;;;;9.93;6.32;;;15.50;79.20;;;;;;5454554;26;19999;-79
2024/04/12 08:14:52;;;;;;;8.45;6.07;;;15.80;78.00;;;;;;5460961;26;20007;-79
2024/04/12 08:17:25;;;;;;;9.65;5.82;;;16.00;75.10;;;;;;5466643;26;20072;-79
2024/04/12 08:20:00;;;;;;;9.98;5.85;;;16.10;74.50;;;;;;5468246;26;20050;-79
2024/04/12 08:22:33;;;;;;;8.90;5.65;;;16.30;75.60;;;;;;5434593;26;20077;-77
2024/04/12 08:25:02;;;;;;;7.95;5.43;;;16.50;73.40;;;;;;5465311;26;20371;-77
2024/04/12 08:27:31;;;;;;;11.20;5.55;;;16.70;75.20;;;;;;5473367;26;20002;-77
2024/04/12 08:29:58;;;;;;;8.02;5.65;;;16.90;73.70;;;;;;5469853;26;20431;-77
2024/04/12 08:32:31;;;;;;;11.50;6.15;;;17.10;70.20;;;;;;5474529;26;20075;-77
2024/04/12 08:35:06;;;;;;;10.07;6.05;;;17.30;71.70;;;;;;5445315;26;20003;-77
2024/04/12 08:37:37;;;;;;;8.32;5.88;;;17.50;69.00;;;;;;5481030;26;20017;-77
2024/04/12 08:40:08;;;;;;;10.35;6.75;;;17.60;68.70;;;;;;5475010;26;20028;-79
2024/04/12 08:42:37;;;;;;;7.28;6.30;;;17.70;66.90;;;;;;5477096;26;20026;-78
2024/04/12 08:45:14;;;;;;;8.50;6.80;;;17.80;67.00;;;;;;5483337;26;20006;-77
2024/04/12 08:47:54;;;;;;;10.00;6.20;;;18.00;70.10;;;;;;5476225;26;20006;-77
2024/04/12 08:50:24;;;;;;;10.23;6.38;;;18.20;69.00;;;;;;5474500;26;20323;-77
2024/04/12 08:52:57;;;;;;;10.25;6.75;;;18.40;67.10;;;;;;5461664;26;20297;-77
2024/04/12 08:55:28;;;;;;;12.98;6.95;;;18.50;63.30;;;;;;5476573;26;20007;-78
2024/04/12 08:58:00;;;;;;;7.80;5.80;;;18.70;65.30;;;;;;5496791;26;20034;-78
2024/04/12 09:00:32;;;;;;;11.73;6.88;;;18.80;61.50;;;;;;5455969;26;19999;-78
2024/04/12 09:03:25;;;;;;;14.63;7.05;;;18.80;61.50;;;;;;5468504;26;20003;-78
2024/04/12 09:05:57;;;;;;;12.77;7.13;;;19.00;61.90;;;;;;5440554;26;20006;-78
2024/04/12 09:08:28;;;;;;;9.48;5.82;;;19.10;60.90;;;;;;5473273;26;20018;-78
2024/04/12 09:11:05;;;;;;;10.40;6.35;;;19.30;62.30;;;;;;5464942;26;20006;-78
2024/04/12 09:13:35;;;;;;;10.98;5.88;;;19.50;60.40;;;;;;5447396;26;20031;-78
2024/04/12 09:16:07;;;;;;;14.02;6.53;;;19.70;60.40;;;;;;5466547;26;20011;-78
2024/04/12 09:18:44;;;;;;;16.67;5.97;;;19.80;59.20;;;;;;5484433;26;20423;-78
2024/04/12 09:21:24;;;;;;;11.32;6.40;;;19.90;56.40;;;;;;5463830;26;20021;-78
2024/04/12 09:23:56;;;;;;;13.52;6.85;;;20.00;57.20;;;;;;5458570;26;20002;-78
2024/04/12 09:26:25;;;;;;;9.85;6.63;;;20.10;60.00;;;;;;5447030;26;20011;-78
2024/04/12 09:29:01;;;;;;;11.40;6.43;;;20.30;60.40;;;;;;5477312;26;20430;-78
2024/04/12 09:37:29;;;;;;;9.15;6.68;;;21.10;56.00;;;;;;5444869;26;20159;-79
2024/04/12 09:45:28;;;;;;;9.20;6.60;;;21.10;55.30;;;;;;5459825;26;20493;-80
2024/04/12 10:38:14;;;;;;;8.23;4.70;;;23.70;51.20;;;;;;5473735;26;20014;-79
2024/04/12 10:41:07;;;;;;;9.60;5.13;;;24.00;50.00;;;;;;5456015;26;20021;-80
2024/04/12 10:43:43;;;;;;;7.75;4.97;;;24.40;49.90;;;;;;5444432;26;20316;-79
2024/04/12 10:46:11;;;;;;;9.50;5.68;;;24.60;49.50;;;;;;5466201;26;20017;-80
2024/04/12 10:48:42;;;;;;;9.50;5.90;;;24.70;47.20;;;;;;5454923;26;19998;-79
2024/04/12 10:51:09;;;;;;;7.75;4.88;;;24.80;49.30;;;;;;5473379;26;19998;-79
2024/04/12 10:53:42;;;;;;;10.32;5.40;;;24.90;48.90;;;;;;5467439;26;20003;-80
2024/04/12 10:56:12;;;;;;;8.45;4.82;;;25.20;49.20;;;;;;5463185;26;20007;-81
2024/04/12 10:58:56;;;;;;;10.48;5.13;;;25.40;48.70;;;;;;5464857;26;20015;-80
2024/04/12 11:01:26;;;;;;;6.70;5.22;;;25.70;48.40;;;;;;5458203;26;20365;-80
2024/04/12 11:03:56;;;;;;;11.52;4.20;;;25.80;46.30;;;;;;5459052;26;20002;-80
2024/04/12 11:06:31;;;;;;;7.75;5.65;;;26.00;48.40;;;;;;5458171;26;20072;-80
2024/04/12 11:09:06;;;;;;;8.45;5.43;;;26.10;45.70;;;;;;5469524;26;20078;-80
2024/04/12 11:11:43;;;;;;;8.13;4.50;;;26.10;47.60;;;;;;5472900;26;20026;-79
2024/04/12 11:14:18;;;;;;;7.88;4.47;;;26.30;47.20;;;;;;5454769;26;20696;-82
2024/04/12 11:31:14;;;;;;;10.27;3.80;;;27.60;42.80;;;;;;5465694;26;19995;-80
2024/04/12 11:33:46;;;;;;;10.57;4.00;;;27.70;41.40;;;;;;5473265;26;20411;-81
2024/04/12 11:36:20;;;;;;;8.40;3.97;;;27.90;42.20;;;;;;5452598;26;20023;-83
2024/04/12 11:38:53;;;;;;;6.35;2.90;;;28.00;40.40;;;;;;5478135;26;19998;-81
2024/04/12 11:41:23;;;;;;;8.95;3.33;;;28.00;40.40;;;;;;5467173;26;20003;-83
2024/04/12 11:43:52;;;;;;;7.65;3.20;;;28.30;41.80;;;;;;5472213;26;20080;-83
2024/04/12 11:46:22;;;;;;;5.07;2.88;;;28.60;41.70;;;;;;5465778;26;20013;-85
2024/04/12 11:48:53;;;;;;;8.15;3.08;;;29.00;40.90;;;;;;5465206;26;20003;-80
2024/04/12 11:51:21;;;;;;;9.65;4.05;;;29.30;40.30;;;;;;5429831;26;20017;-81
2024/04/12 11:53:50;;;;;;;9.43;4.30;;;29.60;40.60;;;;;;5453671;26;20010;-80
2024/04/12 11:56:17;;;;;;;6.88;4.30;;;29.80;39.50;;;;;;5428370;26;19999;-80
